sensor_id;sensor_type;location;lat;lon;timestamp;P1;durP1;ratioP1;P2;durP2;ratioP2
75535;SDS011;64119;52.070;20.804;2024-02-04T00:00:56;7.20;;;1.80;;
75535;SDS011;64119;52.070;20.804;2024-02-04T00:03:44;4.70;;;1.70;;
75535;SDS011;64119;52.070;20.804;2024-02-04T00:06:12;7.40;;;1.70;;
75535;SDS011;64119;52.070;20.804;2024-02-04T00:08:40;5.10;;;1.90;;
75535;SDS011;64119;52.070;20.804;2024-02-04T00:11:07;5.10;;;2.00;;
75535;SDS011;64119;52.070;20.804;2024-02-04T00:13:39;5.60;;;1.90;;
75535;SDS011;64119;52.070;20.804;2024-02-04T00:16:07;7.10;;;2.00;;
75535;SDS011;64119;52.070;20.804;2024-02-04T00:18:34;6.60;;;1.80;;
75535;SDS011;64119;52.070;20.804;2024-02-04T00:21:02;3.80;;;1.80;;
75535;SDS011;64119;52.070;20.804;2024-02-04T00:23:30;4.20;;;1.80;;
75535;SDS011;64119;52.070;20.804;2024-02-04T00:25:58;5.70;;;2.20;;
75535;SDS011;64119;52.070;20.804;2024-02-04T00:28:26;6.80;;;2.40;;
75535;SDS011;64119;52.070;20.804;2024-02-04T00:30:55;5.80;;;2.10;;
75535;SDS011;64119;52.070;20.804;2024-02-04T00:33:23;3.90;;;1.60;;
75535;SDS011;64119;52.070;20.804;2024-02-04T00:35:51;4.20;;;1.90;;
75535;SDS011;64119;52.070;20.804;2024-02-04T00:38:19;5.30;;;1.80;;
75535;SDS011;64119;52.070;20.804;2024-02-04T00:40:47;3.50;;;1.50;;
75535;SDS011;64119;52.070;20.804;2024-02-04T00:43:15;4.60;;;1.90;;
75535;SDS011;64119;52.070;20.804;2024-02-04T00:45:42;6.40;;;1.80;;
75535;SDS011;64119;52.070;20.804;2024-02-04T00:48:10;6.10;;;1.70;;
75535;SDS011;64119;52.070;20.804;2024-02-04T00:50:38;5.60;;;2.00;;
75535;SDS011;64119;52.070;20.804;2024-02-04T00:53:06;5.00;;;1.90;;
75535;SDS011;64119;52.070;20.804;2024-02-04T00:55:34;6.50;;;1.90;;
75535;SDS011;64119;52.070;20.804;2024-02-04T00:58:01;4.30;;;1.60;;
75535;SDS011;64119;52.070;20.804;2024-02-04T01:00:30;6.70;;;2.20;;
75535;SDS011;64119;52.070;20.804;2024-02-04T01:02:58;3.80;;;1.50;;
75535;SDS011;64119;52.070;20.804;2024-02-04T01:05:26;4.20;;;1.60;;
75535;SDS011;64119;52.070;20.804;2024-02-04T01:07:54;6.10;;;1.70;;
75535;SDS011;64119;52.070;20.804;2024-02-04T01:10:21;3.80;;;1.60;;
75535;SDS011;64119;52.070;20.804;2024-02-04T01:12:49;3.90;;;1.70;;
75535;SDS011;64119;52.070;20.804;2024-02-04T01:15:17;5.90;;;1.80;;
75535;SDS011;64119;52.070;20.804;2024-02-04T01:17:45;5.30;;;2.10;;
75535;SDS011;64119;52.070;20.804;2024-02-04T01:20:13;6.20;;;1.80;;
75535;SDS011;64119;52.070;20.804;2024-02-04T01:22:41;6.00;;;2.30;;
75535;SDS011;64119;52.070;20.804;2024-02-04T01:25:08;4.00;;;1.70;;
75535;SDS011;64119;52.070;20.804;2024-02-04T01:27:36;6.90;;;2.10;;
75535;SDS011;64119;52.070;20.804;2024-02-04T01:30:04;4.70;;;1.80;;
75535;SDS011;64119;52.070;20.804;2024-02-04T01:32:34;3.80;;;1.70;;
75535;SDS011;64119;52.070;20.804;2024-02-04T01:35:01;5.10;;;2.10;;
75535;SDS011;64119;52.070;20.804;2024-02-04T01:37:31;3.50;;;2.00;;
75535;SDS011;64119;52.070;20.804;2024-02-04T01:39:58;4.40;;;2.10;;
75535;SDS011;64119;52.070;20.804;2024-02-04T01:42:27;3.50;;;1.60;;
75535;SDS011;64119;52.070;20.804;2024-02-04T01:44:55;4.20;;;1.90;;
75535;SDS011;64119;52.070;20.804;2024-02-04T01:47:23;4.20;;;2.00;;
75535;SDS011;64119;52.070;20.804;2024-02-04T01:49:50;4.00;;;1.80;;
75535;SDS011;64119;52.070;20.804;2024-02-04T01:52:18;4.20;;;1.60;;
75535;SDS011;64119;52.070;20.804;2024-02-04T01:54:46;3.50;;;1.50;;
75535;SDS011;64119;52.070;20.804;2024-02-04T01:57:15;4.60;;;1.70;;
75535;SDS011;64119;52.070;20.804;2024-02-04T01:59:44;6.00;;;2.10;;
75535;SDS011;64119;52.070;20.804;2024-02-04T02:02:13;5.90;;;2.00;;
75535;SDS011;64119;52.070;20.804;2024-02-04T02:04:41;3.00;;;1.50;;
75535;SDS011;64119;52.070;20.804;2024-02-04T02:07:09;5.90;;;1.70;;
75535;SDS011;64119;52.070;20.804;2024-02-04T02:09:38;7.50;;;1.80;;
75535;SDS011;64119;52.070;20.804;2024-02-04T02:12:13;6.80;;;1.90;;
75535;SDS011;64119;52.070;20.804;2024-02-04T02:14:46;5.00;;;1.70;;
75535;SDS011;64119;52.070;20.804;2024-02-04T02:17:19;4.70;;;1.50;;
75535;SDS011;64119;52.070;20.804;2024-02-04T02:20:02;4.40;;;1.70;;
75535;SDS011;64119;52.070;20.804;2024-02-04T02:22:39;4.30;;;1.40;;
75535;SDS011;64119;52.070;20.804;2024-02-04T02:25:38;2.80;;;1.10;;
75535;SDS011;64119;52.070;20.804;2024-02-04T02:28:08;3.50;;;1.50;;
75535;SDS011;64119;52.070;20.804;2024-02-04T02:30:35;6.40;;;1.90;;
75535;SDS011;64119;52.070;20.804;2024-02-04T02:33:04;2.90;;;1.40;;
75535;SDS011;64119;52.070;20.804;2024-02-04T02:35:34;7.00;;;1.60;;
75535;SDS011;64119;52.070;20.804;2024-02-04T02:38:06;4.50;;;1.50;;
75535;SDS011;64119;52.070;20.804;2024-02-04T02:43:21;8.20;;;1.70;;
75535;SDS011;64119;52.070;20.804;2024-02-04T02:45:50;3.30;;;1.20;;
75535;SDS011;64119;52.070;20.804;2024-02-04T02:48:18;3.20;;;1.20;;
75535;SDS011;64119;52.070;20.804;2024-02-04T02:50:47;7.10;;;1.70;;
75535;SDS011;64119;52.070;20.804;2024-02-04T02:53:15;5.70;;;1.50;;
75535;SDS011;64119;52.070;20.804;2024-02-04T02:55:43;4.00;;;1.30;;
75535;SDS011;64119;52.070;20.804;2024-02-04T02:58:14;3.10;;;1.20;;
75535;SDS011;64119;52.070;20.804;2024-02-04T03:00:42;8.00;;;1.90;;
75535;SDS011;64119;52.070;20.804;2024-02-04T03:03:10;3.70;;;1.00;;
75535;SDS011;64119;52.070;20.804;2024-02-04T03:05:38;3.90;;;1.40;;
75535;SDS011;64119;52.070;20.804;2024-02-04T03:08:06;3.90;;;1.50;;
75535;SDS011;64119;52.070;20.804;2024-02-04T03:10:34;2.60;;;1.10;;
75535;SDS011;64119;52.070;20.804;2024-02-04T03:13:02;5.00;;;1.40;;
75535;SDS011;64119;52.070;20.804;2024-02-04T03:15:30;3.70;;;1.30;;
75535;SDS011;64119;52.070;20.804;2024-02-04T03:17:58;3.50;;;1.20;;
75535;SDS011;64119;52.070;20.804;2024-02-04T03:20:26;6.60;;;1.60;;
75535;SDS011;64119;52.070;20.804;2024-02-04T03:22:54;4.50;;;1.30;;
75535;SDS011;64119;52.070;20.804;2024-02-04T03:25:23;2.50;;;1.10;;
75535;SDS011;64119;52.070;20.804;2024-02-04T03:27:54;3.40;;;1.30;;
75535;SDS011;64119;52.070;20.804;2024-02-04T03:30:23;6.30;;;1.50;;
75535;SDS011;64119;52.070;20.804;2024-02-04T03:32:51;3.70;;;1.20;;
75535;SDS011;64119;52.070;20.804;2024-02-04T03:35:19;5.20;;;2.20;;
75535;SDS011;64119;52.070;20.804;2024-02-04T03:37:47;3.00;;;1.30;;
75535;SDS011;64119;52.070;20.804;2024-02-04T03:40:15;3.30;;;1.30;;
75535;SDS011;64119;52.070;20.804;2024-02-04T03:42:43;5.00;;;1.60;;
75535;SDS011;64119;52.070;20.804;2024-02-04T03:45:11;4.50;;;1.40;;
75535;SDS011;64119;52.070;20.804;2024-02-04T03:47:39;4.40;;;1.20;;
75535;SDS011;64119;52.070;20.804;2024-02-04T03:50:07;5.30;;;1.30;;
75535;SDS011;64119;52.070;20.804;2024-02-04T03:52:35;6.90;;;1.40;;
75535;SDS011;64119;52.070;20.804;2024-02-04T03:55:03;3.20;;;1.10;;
75535;SDS011;64119;52.070;20.804;2024-02-04T03:57:32;5.80;;;1.60;;
75535;SDS011;64119;52.070;20.804;2024-02-04T04:00:00;5.50;;;1.60;;
75535;SDS011;64119;52.070;20.804;2024-02-04T04:02:38;5.70;;;1.40;;
75535;SDS011;64119;52.070;20.804;2024-02-04T04:05:06;3.20;;;1.00;;
75535;SDS011;64119;52.070;20.804;2024-02-04T04:07:38;2.70;;;0.90;;
75535;SDS011;64119;52.070;20.804;2024-02-04T04:10:07;7.20;;;1.60;;
75535;SDS011;64119;52.070;20.804;2024-02-04T04:12:35;4.20;;;0.90;;
75535;SDS011;64119;52.070;20.804;2024-02-04T04:15:03;3.50;;;1.30;;
75535;SDS011;64119;52.070;20.804;2024-02-04T04:17:31;4.40;;;1.30;;
75535;SDS011;64119;52.070;20.804;2024-02-04T04:19:59;7.30;;;1.20;;
75535;SDS011;64119;52.070;20.804;2024-02-04T04:22:27;4.30;;;1.60;;
75535;SDS011;64119;52.070;20.804;2024-02-04T04:24:55;4.20;;;1.30;;
75535;SDS011;64119;52.070;20.804;2024-02-04T04:27:23;3.90;;;0.80;;
75535;SDS011;64119;52.070;20.804;2024-02-04T04:29:51;2.40;;;1.00;;
75535;SDS011;64119;52.070;20.804;2024-02-04T04:32:19;4.20;;;1.40;;
75535;SDS011;64119;52.070;20.804;2024-02-04T04:34:47;4.00;;;1.00;;
75535;SDS011;64119;52.070;20.804;2024-02-04T04:37:15;4.30;;;1.30;;
75535;SDS011;64119;52.070;20.804;2024-02-04T04:39:43;4.10;;;1.40;;
75535;SDS011;64119;52.070;20.804;2024-02-04T04:42:11;3.00;;;1.50;;
75535;SDS011;64119;52.070;20.804;2024-02-04T04:44:38;2.40;;;1.20;;
75535;SDS011;64119;52.070;20.804;2024-02-04T04:47:06;6.80;;;1.70;;
75535;SDS011;64119;52.070;20.804;2024-02-04T04:49:34;5.40;;;1.30;;
75535;SDS011;64119;52.070;20.804;2024-02-04T04:52:02;5.20;;;1.60;;
75535;SDS011;64119;52.070;20.804;2024-02-04T04:54:30;5.80;;;1.20;;
75535;SDS011;64119;52.070;20.804;2024-02-04T04:56:58;3.00;;;0.90;;
75535;SDS011;64119;52.070;20.804;2024-02-04T04:59:26;3.40;;;1.20;;
75535;SDS011;64119;52.070;20.804;2024-02-04T05:01:53;4.00;;;1.20;;
75535;SDS011;64119;52.070;20.804;2024-02-04T05:04:21;5.20;;;1.30;;
75535;SDS011;64119;52.070;20.804;2024-02-04T05:06:53;2.70;;;1.20;;
75535;SDS011;64119;52.070;20.804;2024-02-04T05:09:21;2.80;;;1.20;;
75535;SDS011;64119;52.070;20.804;2024-02-04T05:11:49;3.20;;;1.10;;
75535;SDS011;64119;52.070;20.804;2024-02-04T05:14:16;2.50;;;1.40;;
75535;SDS011;64119;52.070;20.804;2024-02-04T05:16:44;3.30;;;0.90;;
75535;SDS011;64119;52.070;20.804;2024-02-04T05:19:12;1.20;;;0.60;;
75535;SDS011;64119;52.070;20.804;2024-02-04T05:21:41;3.60;;;0.60;;
75535;SDS011;64119;52.070;20.804;2024-02-04T05:24:08;3.20;;;0.90;;
75535;SDS011;64119;52.070;20.804;2024-02-04T05:26:36;2.40;;;0.70;;
75535;SDS011;64119;52.070;20.804;2024-02-04T05:29:04;2.70;;;0.90;;
75535;SDS011;64119;52.070;20.804;2024-02-04T05:31:32;3.30;;;0.90;;
75535;SDS011;64119;52.070;20.804;2024-02-04T05:34:04;5.30;;;1.40;;
75535;SDS011;64119;52.070;20.804;2024-02-04T05:36:34;2.20;;;1.00;;
75535;SDS011;64119;52.070;20.804;2024-02-04T05:39:12;3.80;;;1.00;;
75535;SDS011;64119;52.070;20.804;2024-02-04T05:41:43;2.90;;;1.20;;
75535;SDS011;64119;52.070;20.804;2024-02-04T05:44:11;2.10;;;0.70;;
75535;SDS011;64119;52.070;20.804;2024-02-04T05:46:39;4.10;;;1.40;;
75535;SDS011;64119;52.070;20.804;2024-02-04T05:49:07;4.60;;;1.20;;
75535;SDS011;64119;52.070;20.804;2024-02-04T05:51:38;6.40;;;1.50;;
75535;SDS011;64119;52.070;20.804;2024-02-04T05:54:08;5.10;;;1.20;;
75535;SDS011;64119;52.070;20.804;2024-02-04T05:56:36;4.10;;;1.40;;
75535;SDS011;64119;52.070;20.804;2024-02-04T05:59:04;6.60;;;1.60;;
75535;SDS011;64119;52.070;20.804;2024-02-04T06:01:32;3.70;;;1.00;;
75535;SDS011;64119;52.070;20.804;2024-02-04T06:04:00;4.70;;;1.20;;
75535;SDS011;64119;52.070;20.804;2024-02-04T06:06:29;4.40;;;1.30;;
75535;SDS011;64119;52.070;20.804;2024-02-04T06:08:56;4.50;;;1.30;;
75535;SDS011;64119;52.070;20.804;2024-02-04T06:11:25;2.80;;;1.00;;
75535;SDS011;64119;52.070;20.804;2024-02-04T06:13:53;3.90;;;1.70;;
75535;SDS011;64119;52.070;20.804;2024-02-04T06:16:21;6.60;;;1.70;;
75535;SDS011;64119;52.070;20.804;2024-02-04T06:18:49;8.40;;;1.70;;
75535;SDS011;64119;52.070;20.804;2024-02-04T06:21:17;6.90;;;1.30;;
75535;SDS011;64119;52.070;20.804;2024-02-04T06:23:45;7.70;;;1.90;;
75535;SDS011;64119;52.070;20.804;2024-02-04T06:26:13;5.30;;;1.40;;
75535;SDS011;64119;52.070;20.804;2024-02-04T06:28:41;7.80;;;1.70;;
75535;SDS011;64119;52.070;20.804;2024-02-04T06:31:12;6.40;;;2.00;;
75535;SDS011;64119;52.070;20.804;2024-02-04T06:33:40;5.40;;;1.70;;
75535;SDS011;64119;52.070;20.804;2024-02-04T06:36:09;5.30;;;1.40;;
75535;SDS011;64119;52.070;20.804;2024-02-04T06:38:38;6.60;;;1.90;;
75535;SDS011;64119;52.070;20.804;2024-02-04T06:41:06;5.40;;;1.30;;
75535;SDS011;64119;52.070;20.804;2024-02-04T06:43:36;6.20;;;1.30;;
75535;SDS011;64119;52.070;20.804;2024-02-04T06:46:04;6.10;;;1.50;;
75535;SDS011;64119;52.070;20.804;2024-02-04T06:48:32;5.00;;;1.70;;
75535;SDS011;64119;52.070;20.804;2024-02-04T06:51:00;3.80;;;1.40;;
75535;SDS011;64119;52.070;20.804;2024-02-04T06:53:29;8.70;;;1.30;;
75535;SDS011;64119;52.070;20.804;2024-02-04T06:55:57;4.40;;;1.30;;
75535;SDS011;64119;52.070;20.804;2024-02-04T06:58:25;5.20;;;1.40;;
75535;SDS011;64119;52.070;20.804;2024-02-04T07:00:53;10.30;;;1.40;;
75535;SDS011;64119;52.070;20.804;2024-02-04T07:03:21;6.40;;;1.90;;
75535;SDS011;64119;52.070;20.804;2024-02-04T07:05:49;5.10;;;1.50;;
75535;SDS011;64119;52.070;20.804;2024-02-04T07:08:16;3.40;;;1.10;;
75535;SDS011;64119;52.070;20.804;2024-02-04T07:10:45;5.60;;;1.70;;
75535;SDS011;64119;52.070;20.804;2024-02-04T07:13:12;4.40;;;1.50;;
75535;SDS011;64119;52.070;20.804;2024-02-04T07:15:40;4.60;;;1.40;;
75535;SDS011;64119;52.070;20.804;2024-02-04T07:18:09;4.10;;;1.20;;
75535;SDS011;64119;52.070;20.804;2024-02-04T07:20:37;6.30;;;1.60;;
75535;SDS011;64119;52.070;20.804;2024-02-04T07:23:05;5.60;;;1.10;;
75535;SDS011;64119;52.070;20.804;2024-02-04T07:25:33;7.50;;;1.50;;
75535;SDS011;64119;52.070;20.804;2024-02-04T07:28:02;6.80;;;1.50;;
75535;SDS011;64119;52.070;20.804;2024-02-04T07:30:30;9.40;;;1.60;;
75535;SDS011;64119;52.070;20.804;2024-02-04T07:32:59;5.20;;;1.40;;
75535;SDS011;64119;52.070;20.804;2024-02-04T07:35:27;5.50;;;1.70;;
75535;SDS011;64119;52.070;20.804;2024-02-04T07:37:54;5.90;;;1.30;;
75535;SDS011;64119;52.070;20.804;2024-02-04T07:40:22;5.50;;;0.90;;
75535;SDS011;64119;52.070;20.804;2024-02-04T07:42:50;5.70;;;1.50;;
75535;SDS011;64119;52.070;20.804;2024-02-04T07:45:18;5.70;;;2.10;;
75535;SDS011;64119;52.070;20.804;2024-02-04T07:47:48;7.00;;;1.40;;
75535;SDS011;64119;52.070;20.804;2024-02-04T07:50:16;5.80;;;1.30;;
75535;SDS011;64119;52.070;20.804;2024-02-04T07:52:45;5.00;;;2.10;;
75535;SDS011;64119;52.070;20.804;2024-02-04T07:55:13;5.60;;;1.60;;
75535;SDS011;64119;52.070;20.804;2024-02-04T07:57:41;5.90;;;1.60;;
75535;SDS011;64119;52.070;20.804;2024-02-04T08:00:09;3.80;;;1.50;;
75535;SDS011;64119;52.070;20.804;2024-02-04T08:02:40;8.40;;;1.50;;
75535;SDS011;64119;52.070;20.804;2024-02-04T08:05:08;5.90;;;1.50;;
75535;SDS011;64119;52.070;20.804;2024-02-04T08:07:36;6.60;;;1.80;;
75535;SDS011;64119;52.070;20.804;2024-02-04T08:10:04;4.30;;;1.30;;
75535;SDS011;64119;52.070;20.804;2024-02-04T08:12:33;5.40;;;1.50;;
75535;SDS011;64119;52.070;20.804;2024-02-04T08:15:01;7.20;;;1.60;;
75535;SDS011;64119;52.070;20.804;2024-02-04T08:17:31;4.90;;;1.40;;
75535;SDS011;64119;52.070;20.804;2024-02-04T08:20:00;3.90;;;1.30;;
75535;SDS011;64119;52.070;20.804;2024-02-04T08:22:29;4.90;;;1.40;;
75535;SDS011;64119;52.070;20.804;2024-02-04T08:24:57;6.10;;;1.60;;
75535;SDS011;64119;52.070;20.804;2024-02-04T08:27:25;4.40;;;1.50;;
75535;SDS011;64119;52.070;20.804;2024-02-04T08:29:52;4.30;;;1.20;;
75535;SDS011;64119;52.070;20.804;2024-02-04T08:32:20;4.90;;;1.30;;
75535;SDS011;64119;52.070;20.804;2024-02-04T08:34:48;4.40;;;1.40;;
75535;SDS011;64119;52.070;20.804;2024-02-04T08:37:16;6.00;;;1.20;;
75535;SDS011;64119;52.070;20.804;2024-02-04T08:39:44;6.90;;;1.60;;
75535;SDS011;64119;52.070;20.804;2024-02-04T08:42:12;6.40;;;1.70;;
75535;SDS011;64119;52.070;20.804;2024-02-04T08:44:40;4.40;;;1.30;;
75535;SDS011;64119;52.070;20.804;2024-02-04T08:47:08;6.10;;;1.90;;
75535;SDS011;64119;52.070;20.804;2024-02-04T08:49:38;3.80;;;1.20;;
75535;SDS011;64119;52.070;20.804;2024-02-04T08:52:06;4.30;;;1.10;;
75535;SDS011;64119;52.070;20.804;2024-02-04T08:54:34;6.70;;;1.60;;
75535;SDS011;64119;52.070;20.804;2024-02-04T08:57:03;6.60;;;1.40;;
75535;SDS011;64119;52.070;20.804;2024-02-04T08:59:32;6.40;;;1.80;;
75535;SDS011;64119;52.070;20.804;2024-02-04T09:01:59;5.70;;;1.70;;
75535;SDS011;64119;52.070;20.804;2024-02-04T09:04:27;4.20;;;1.60;;
75535;SDS011;64119;52.070;20.804;2024-02-04T09:06:55;4.50;;;1.50;;
75535;SDS011;64119;52.070;20.804;2024-02-04T09:09:23;7.00;;;1.60;;
75535;SDS011;64119;52.070;20.804;2024-02-04T09:11:51;6.60;;;1.40;;
75535;SDS011;64119;52.070;20.804;2024-02-04T09:14:19;3.60;;;1.00;;
75535;SDS011;64119;52.070;20.804;2024-02-04T09:16:47;8.40;;;1.90;;
75535;SDS011;64119;52.070;20.804;2024-02-04T09:19:15;6.00;;;1.90;;
75535;SDS011;64119;52.070;20.804;2024-02-04T09:21:42;7.20;;;1.50;;
75535;SDS011;64119;52.070;20.804;2024-02-04T09:24:10;4.20;;;1.50;;
75535;SDS011;64119;52.070;20.804;2024-02-04T09:26:38;5.60;;;1.50;;
75535;SDS011;64119;52.070;20.804;2024-02-04T09:29:06;6.80;;;1.60;;
75535;SDS011;64119;52.070;20.804;2024-02-04T09:31:34;5.90;;;1.80;;
75535;SDS011;64119;52.070;20.804;2024-02-04T09:34:02;3.50;;;1.20;;
75535;SDS011;64119;52.070;20.804;2024-02-04T09:36:30;7.30;;;1.90;;
75535;SDS011;64119;52.070;20.804;2024-02-04T09:38:58;6.20;;;1.90;;
75535;SDS011;64119;52.070;20.804;2024-02-04T09:41:26;7.40;;;1.50;;
75535;SDS011;64119;52.070;20.804;2024-02-04T09:43:54;5.90;;;1.50;;
75535;SDS011;64119;52.070;20.804;2024-02-04T09:46:23;5.00;;;1.60;;
75535;SDS011;64119;52.070;20.804;2024-02-04T09:48:51;4.90;;;1.50;;
75535;SDS011;64119;52.070;20.804;2024-02-04T09:51:21;8.20;;;1.70;;
75535;SDS011;64119;52.070;20.804;2024-02-04T09:53:51;5.90;;;1.70;;
75535;SDS011;64119;52.070;20.804;2024-02-04T09:56:21;7.90;;;1.50;;
75535;SDS011;64119;52.070;20.804;2024-02-04T09:58:52;4.80;;;1.60;;
75535;SDS011;64119;52.070;20.804;2024-02-04T10:01:21;6.10;;;1.40;;
75535;SDS011;64119;52.070;20.804;2024-02-04T10:06:18;3.90;;;1.40;;
75535;SDS011;64119;52.070;20.804;2024-02-04T10:08:46;5.70;;;1.60;;
75535;SDS011;64119;52.070;20.804;2024-02-04T10:11:16;8.10;;;1.30;;
75535;SDS011;64119;52.070;20.804;2024-02-04T10:16:13;4.90;;;1.60;;
75535;SDS011;64119;52.070;20.804;2024-02-04T10:18:42;6.80;;;1.70;;
75535;SDS011;64119;52.070;20.804;2024-02-04T10:23:47;4.80;;;1.30;;
75535;SDS011;64119;52.070;20.804;2024-02-04T10:26:16;5.30;;;1.50;;
75535;SDS011;64119;52.070;20.804;2024-02-04T10:28:47;4.60;;;1.50;;
75535;SDS011;64119;52.070;20.804;2024-02-04T10:31:16;6.40;;;1.90;;
75535;SDS011;64119;52.070;20.804;2024-02-04T10:33:44;3.30;;;1.40;;
75535;SDS011;64119;52.070;20.804;2024-02-04T10:36:13;7.20;;;1.40;;
75535;SDS011;64119;52.070;20.804;2024-02-04T10:38:41;5.70;;;1.80;;
75535;SDS011;64119;52.070;20.804;2024-02-04T10:41:08;5.10;;;1.40;;
75535;SDS011;64119;52.070;20.804;2024-02-04T10:43:42;4.50;;;1.50;;
75535;SDS011;64119;52.070;20.804;2024-02-04T10:48:57;4.40;;;1.50;;
75535;SDS011;64119;52.070;20.804;2024-02-04T10:51:28;7.30;;;1.50;;
75535;SDS011;64119;52.070;20.804;2024-02-04T10:53:58;3.80;;;1.00;;
75535;SDS011;64119;52.070;20.804;2024-02-04T10:56:32;4.40;;;1.40;;
75535;SDS011;64119;52.070;20.804;2024-02-04T10:59:05;5.10;;;1.40;;
75535;SDS011;64119;52.070;20.804;2024-02-04T11:01:35;5.50;;;1.40;;
75535;SDS011;64119;52.070;20.804;2024-02-04T11:04:04;9.60;;;1.80;;
75535;SDS011;64119;52.070;20.804;2024-02-04T11:06:36;5.80;;;1.30;;
75535;SDS011;64119;52.070;20.804;2024-02-04T11:09:05;3.60;;;1.00;;
75535;SDS011;64119;52.070;20.804;2024-02-04T11:11:37;6.00;;;1.70;;
75535;SDS011;64119;52.070;20.804;2024-02-04T11:14:11;5.50;;;1.60;;
75535;SDS011;64119;52.070;20.804;2024-02-04T11:22:13;6.00;;;1.70;;
75535;SDS011;64119;52.070;20.804;2024-02-04T11:25:03;6.50;;;2.20;;
75535;SDS011;64119;52.070;20.804;2024-02-04T11:27:46;3.60;;;1.50;;
75535;SDS011;64119;52.070;20.804;2024-02-04T11:30:15;5.00;;;1.70;;
75535;SDS011;64119;52.070;20.804;2024-02-04T11:32:44;5.00;;;1.60;;
75535;SDS011;64119;52.070;20.804;2024-02-04T11:35:15;8.00;;;1.50;;
75535;SDS011;64119;52.070;20.804;2024-02-04T11:37:43;5.70;;;1.60;;
75535;SDS011;64119;52.070;20.804;2024-02-04T11:40:17;6.50;;;2.50;;
75535;SDS011;64119;52.070;20.804;2024-02-04T11:42:46;5.60;;;2.20;;
75535;SDS011;64119;52.070;20.804;2024-02-04T11:45:14;4.70;;;2.00;;
75535;SDS011;64119;52.070;20.804;2024-02-04T11:47:42;4.70;;;2.00;;
75535;SDS011;64119;52.070;20.804;2024-02-04T11:50:10;7.80;;;2.30;;
75535;SDS011;64119;52.070;20.804;2024-02-04T11:52:40;7.30;;;2.20;;
75535;SDS011;64119;52.070;20.804;2024-02-04T11:55:15;6.00;;;2.20;;
75535;SDS011;64119;52.070;20.804;2024-02-04T11:57:44;11.50;;;2.60;;
75535;SDS011;64119;52.070;20.804;2024-02-04T12:00:13;5.00;;;1.70;;
75535;SDS011;64119;52.070;20.804;2024-02-04T12:02:44;7.80;;;2.00;;
75535;SDS011;64119;52.070;20.804;2024-02-04T12:05:12;6.00;;;1.80;;
75535;SDS011;64119;52.070;20.804;2024-02-04T12:07:40;3.90;;;1.80;;
75535;SDS011;64119;52.070;20.804;2024-02-04T12:10:11;6.80;;;2.20;;
75535;SDS011;64119;52.070;20.804;2024-02-04T12:12:39;4.90;;;2.10;;
75535;SDS011;64119;52.070;20.804;2024-02-04T12:15:09;7.60;;;2.50;;
75535;SDS011;64119;52.070;20.804;2024-02-04T12:17:38;8.10;;;3.50;;
75535;SDS011;64119;52.070;20.804;2024-02-04T12:20:06;5.50;;;2.40;;
75535;SDS011;64119;52.070;20.804;2024-02-04T12:22:34;5.20;;;2.40;;
75535;SDS011;64119;52.070;20.804;2024-02-04T12:25:02;9.70;;;2.70;;
75535;SDS011;64119;52.070;20.804;2024-02-04T12:27:31;6.00;;;2.60;;
75535;SDS011;64119;52.070;20.804;2024-02-04T12:29:59;7.80;;;2.50;;
75535;SDS011;64119;52.070;20.804;2024-02-04T12:32:27;6.80;;;2.80;;
75535;SDS011;64119;52.070;20.804;2024-02-04T12:34:56;5.60;;;2.20;;
75535;SDS011;64119;52.070;20.804;2024-02-04T12:37:25;4.70;;;2.10;;
75535;SDS011;64119;52.070;20.804;2024-02-04T12:39:54;8.10;;;2.20;;
75535;SDS011;64119;52.070;20.804;2024-02-04T12:42:22;6.60;;;2.30;;
75535;SDS011;64119;52.070;20.804;2024-02-04T12:44:50;4.50;;;2.50;;
75535;SDS011;64119;52.070;20.804;2024-02-04T12:47:19;4.60;;;2.40;;
75535;SDS011;64119;52.070;20.804;2024-02-04T12:49:48;6.10;;;2.40;;
75535;SDS011;64119;52.070;20.804;2024-02-04T12:52:19;6.80;;;2.30;;
75535;SDS011;64119;52.070;20.804;2024-02-04T12:54:48;6.30;;;2.60;;
75535;SDS011;64119;52.070;20.804;2024-02-04T12:57:21;7.70;;;2.80;;
75535;SDS011;64119;52.070;20.804;2024-02-04T12:59:50;5.10;;;2.00;;
75535;SDS011;64119;52.070;20.804;2024-02-04T13:02:18;5.60;;;2.60;;
75535;SDS011;64119;52.070;20.804;2024-02-04T13:04:46;6.80;;;3.00;;
75535;SDS011;64119;52.070;20.804;2024-02-04T13:07:14;6.50;;;2.00;;
75535;SDS011;64119;52.070;20.804;2024-02-04T13:09:45;5.90;;;2.20;;
75535;SDS011;64119;52.070;20.804;2024-02-04T13:12:14;5.10;;;1.90;;
75535;SDS011;64119;52.070;20.804;2024-02-04T13:14:43;5.10;;;2.50;;
75535;SDS011;64119;52.070;20.804;2024-02-04T13:17:12;5.80;;;2.50;;
75535;SDS011;64119;52.070;20.804;2024-02-04T13:19:40;6.30;;;2.30;;
75535;SDS011;64119;52.070;20.804;2024-02-04T13:22:08;5.40;;;2.30;;
75535;SDS011;64119;52.070;20.804;2024-02-04T13:24:42;6.90;;;2.00;;
75535;SDS011;64119;52.070;20.804;2024-02-04T13:27:10;8.60;;;2.80;;
75535;SDS011;64119;52.070;20.804;2024-02-04T13:29:38;5.60;;;1.80;;
75535;SDS011;64119;52.070;20.804;2024-02-04T13:32:07;5.10;;;1.90;;
75535;SDS011;64119;52.070;20.804;2024-02-04T13:34:36;4.20;;;2.00;;
75535;SDS011;64119;52.070;20.804;2024-02-04T13:37:03;7.50;;;2.40;;
75535;SDS011;64119;52.070;20.804;2024-02-04T13:39:31;4.30;;;2.00;;
75535;SDS011;64119;52.070;20.804;2024-02-04T13:41:59;5.70;;;1.40;;
75535;SDS011;64119;52.070;20.804;2024-02-04T13:44:27;8.20;;;2.50;;
75535;SDS011;64119;52.070;20.804;2024-02-04T13:46:55;7.40;;;2.00;;
75535;SDS011;64119;52.070;20.804;2024-02-04T13:49:22;6.20;;;2.40;;
75535;SDS011;64119;52.070;20.804;2024-02-04T13:51:50;6.20;;;2.10;;
75535;SDS011;64119;52.070;20.804;2024-02-04T13:54:18;4.60;;;2.10;;
75535;SDS011;64119;52.070;20.804;2024-02-04T13:56:46;5.60;;;1.90;;
75535;SDS011;64119;52.070;20.804;2024-02-04T13:59:14;3.90;;;1.20;;
75535;SDS011;64119;52.070;20.804;2024-02-04T14:01:42;3.80;;;1.80;;
75535;SDS011;64119;52.070;20.804;2024-02-04T14:04:11;6.00;;;1.60;;
75535;SDS011;64119;52.070;20.804;2024-02-04T14:06:39;4.90;;;1.80;;
75535;SDS011;64119;52.070;20.804;2024-02-04T14:09:07;7.10;;;1.70;;
75535;SDS011;64119;52.070;20.804;2024-02-04T14:11:35;6.40;;;2.20;;
75535;SDS011;64119;52.070;20.804;2024-02-04T14:14:03;2.60;;;1.30;;
75535;SDS011;64119;52.070;20.804;2024-02-04T14:16:31;4.70;;;1.80;;
75535;SDS011;64119;52.070;20.804;2024-02-04T14:18:59;3.30;;;1.20;;
75535;SDS011;64119;52.070;20.804;2024-02-04T14:21:28;3.80;;;1.50;;
75535;SDS011;64119;52.070;20.804;2024-02-04T14:23:56;4.60;;;1.70;;
75535;SDS011;64119;52.070;20.804;2024-02-04T14:26:24;3.40;;;1.40;;
75535;SDS011;64119;52.070;20.804;2024-02-04T14:28:52;4.60;;;1.90;;
75535;SDS011;64119;52.070;20.804;2024-02-04T14:31:20;4.90;;;1.60;;
75535;SDS011;64119;52.070;20.804;2024-02-04T14:33:49;4.20;;;1.40;;
75535;SDS011;64119;52.070;20.804;2024-02-04T14:36:18;3.60;;;1.70;;
75535;SDS011;64119;52.070;20.804;2024-02-04T14:38:47;3.90;;;1.40;;
75535;SDS011;64119;52.070;20.804;2024-02-04T14:41:15;5.10;;;1.60;;
75535;SDS011;64119;52.070;20.804;2024-02-04T14:43:44;3.50;;;1.70;;
75535;SDS011;64119;52.070;20.804;2024-02-04T14:46:12;2.70;;;1.40;;
75535;SDS011;64119;52.070;20.804;2024-02-04T14:48:40;7.40;;;2.00;;
75535;SDS011;64119;52.070;20.804;2024-02-04T14:51:10;2.10;;;1.10;;
75535;SDS011;64119;52.070;20.804;2024-02-04T14:53:38;5.70;;;2.00;;
75535;SDS011;64119;52.070;20.804;2024-02-04T14:56:06;4.40;;;1.80;;
75535;SDS011;64119;52.070;20.804;2024-02-04T14:58:37;6.40;;;1.90;;
75535;SDS011;64119;52.070;20.804;2024-02-04T15:01:05;2.70;;;1.50;;